sensor_id;sensor_type;location;lat;lon;timestamp;P1;durP1;ratioP1;P2;durP2;ratioP2
22778;SDS011;11556;51.194;3.800;2023-11-21T00:02:19;85.55;;;34.05;;
22778;SDS011;11556;51.194;3.800;2023-11-21T00:04:45;83.47;;;31.92;;
22778;SDS011;11556;51.194;3.800;2023-11-21T00:07:12;85.45;;;33.50;;
22778;SDS011;11556;51.194;3.800;2023-11-21T00:09:38;73.90;;;30.42;;
22778;SDS011;11556;51.194;3.800;2023-11-21T00:12:04;83.35;;;32.13;;
22778;SDS011;11556;51.194;3.800;2023-11-21T00:14:29;80.05;;;31.17;;
22778;SDS011;11556;51.194;3.800;2023-11-21T00:16:55;75.30;;;31.10;;
22778;SDS011;11556;51.194;3.800;2023-11-21T00:19:20;74.72;;;30.95;;
22778;SDS011;11556;51.194;3.800;2023-11-21T00:21:46;75.57;;;31.15;;
22778;SDS011;11556;51.194;3.800;2023-11-21T00:24:12;79.30;;;31.02;;
22778;SDS011;11556;51.194;3.800;2023-11-21T00:26:39;76.43;;;31.38;;
22778;SDS011;11556;51.194;3.800;2023-11-21T00:29:05;75.43;;;30.52;;
22778;SDS011;11556;51.194;3.800;2023-11-21T00:31:33;79.20;;;30.48;;
22778;SDS011;11556;51.194;3.800;2023-11-21T00:34:04;79.57;;;30.55;;
22778;SDS011;11556;51.194;3.800;2023-11-21T00:36:30;77.22;;;31.17;;
22778;SDS011;11556;51.194;3.800;2023-11-21T00:38:59;76.10;;;30.65;;
22778;SDS011;11556;51.194;3.800;2023-11-21T00:41:24;73.15;;;30.95;;
22778;SDS011;11556;51.194;3.800;2023-11-21T00:43:52;70.45;;;30.23;;
22778;SDS011;11556;51.194;3.800;2023-11-21T00:46:19;74.78;;;31.05;;
22778;SDS011;11556;51.194;3.800;2023-11-21T00:48:44;72.40;;;29.75;;
22778;SDS011;11556;51.194;3.800;2023-11-21T00:51:10;71.72;;;30.67;;
22778;SDS011;11556;51.194;3.800;2023-11-21T00:53:35;74.28;;;29.55;;
22778;SDS011;11556;51.194;3.800;2023-11-21T00:56:01;70.85;;;28.17;;
22778;SDS011;11556;51.194;3.800;2023-11-21T00:58:27;72.30;;;29.42;;
22778;SDS011;11556;51.194;3.800;2023-11-21T01:00:53;60.67;;;26.98;;
22778;SDS011;11556;51.194;3.800;2023-11-21T01:03:19;72.15;;;28.92;;
22778;SDS011;11556;51.194;3.800;2023-11-21T01:05:45;74.35;;;28.80;;
22778;SDS011;11556;51.194;3.800;2023-11-21T01:08:11;67.97;;;28.15;;
22778;SDS011;11556;51.194;3.800;2023-11-21T01:10:36;64.20;;;27.65;;
22778;SDS011;11556;51.194;3.800;2023-11-21T01:13:02;74.75;;;29.00;;
22778;SDS011;11556;51.194;3.800;2023-11-21T01:15:32;73.53;;;28.92;;
22778;SDS011;11556;51.194;3.800;2023-11-21T01:17:58;59.40;;;27.05;;
22778;SDS011;11556;51.194;3.800;2023-11-21T01:20:24;65.47;;;27.35;;
22778;SDS011;11556;51.194;3.800;2023-11-21T01:22:50;62.63;;;26.50;;
22778;SDS011;11556;51.194;3.800;2023-11-21T01:25:15;62.75;;;26.23;;
22778;SDS011;11556;51.194;3.800;2023-11-21T01:27:41;62.83;;;26.30;;
22778;SDS011;11556;51.194;3.800;2023-11-21T01:30:08;64.72;;;26.17;;
22778;SDS011;11556;51.194;3.800;2023-11-21T01:32:35;55.58;;;25.60;;
22778;SDS011;11556;51.194;3.800;2023-11-21T01:35:02;66.53;;;24.05;;
22778;SDS011;11556;51.194;3.800;2023-11-21T01:37:30;62.80;;;24.02;;
22778;SDS011;11556;51.194;3.800;2023-11-21T01:39:56;60.28;;;24.23;;
22778;SDS011;11556;51.194;3.800;2023-11-21T01:42:22;56.88;;;23.63;;
22778;SDS011;11556;51.194;3.800;2023-11-21T01:44:47;58.65;;;23.83;;
22778;SDS011;11556;51.194;3.800;2023-11-21T01:47:13;63.42;;;25.23;;
22778;SDS011;11556;51.194;3.800;2023-11-21T01:49:40;58.83;;;24.73;;
22778;SDS011;11556;51.194;3.800;2023-11-21T01:52:09;52.75;;;23.40;;
22778;SDS011;11556;51.194;3.800;2023-11-21T01:54:36;58.47;;;23.67;;
22778;SDS011;11556;51.194;3.800;2023-11-21T01:57:02;58.70;;;23.70;;
22778;SDS011;11556;51.194;3.800;2023-11-21T01:59:34;62.20;;;23.65;;
22778;SDS011;11556;51.194;3.800;2023-11-21T02:02:02;62.30;;;22.55;;
22778;SDS011;11556;51.194;3.800;2023-11-21T02:04:30;55.85;;;23.30;;
22778;SDS011;11556;51.194;3.800;2023-11-21T02:06:56;62.35;;;24.05;;
22778;SDS011;11556;51.194;3.800;2023-11-21T02:09:26;52.08;;;22.58;;
22778;SDS011;11556;51.194;3.800;2023-11-21T02:11:53;58.95;;;22.30;;
22778;SDS011;11556;51.194;3.800;2023-11-21T02:14:23;51.95;;;22.63;;
22778;SDS011;11556;51.194;3.800;2023-11-21T02:16:53;55.95;;;22.40;;
22778;SDS011;11556;51.194;3.800;2023-11-21T02:19:20;57.42;;;22.90;;
22778;SDS011;11556;51.194;3.800;2023-11-21T02:21:55;53.55;;;22.67;;
22778;SDS011;11556;51.194;3.800;2023-11-21T02:24:24;51.63;;;22.65;;
22778;SDS011;11556;51.194;3.800;2023-11-21T02:26:50;55.95;;;22.88;;
22778;SDS011;11556;51.194;3.800;2023-11-21T02:29:19;52.08;;;21.65;;
22778;SDS011;11556;51.194;3.800;2023-11-21T02:31:53;55.30;;;22.10;;
22778;SDS011;11556;51.194;3.800;2023-11-21T02:34:19;56.60;;;22.75;;
22778;SDS011;11556;51.194;3.800;2023-11-21T02:36:46;63.20;;;23.05;;
22778;SDS011;11556;51.194;3.800;2023-11-21T02:39:16;52.83;;;21.15;;
22778;SDS011;11556;51.194;3.800;2023-11-21T02:41:43;52.53;;;21.90;;
22778;SDS011;11556;51.194;3.800;2023-11-21T02:44:09;64.13;;;23.80;;
22778;SDS011;11556;51.194;3.800;2023-11-21T02:46:35;61.20;;;22.17;;
22778;SDS011;11556;51.194;3.800;2023-11-21T02:49:02;61.85;;;24.17;;
22778;SDS011;11556;51.194;3.800;2023-11-21T02:51:28;59.40;;;23.40;;
22778;SDS011;11556;51.194;3.800;2023-11-21T02:53:55;63.33;;;24.58;;
22778;SDS011;11556;51.194;3.800;2023-11-21T02:56:24;63.55;;;25.05;;
22778;SDS011;11556;51.194;3.800;2023-11-21T02:58:51;62.13;;;25.15;;
22778;SDS011;11556;51.194;3.800;2023-11-21T03:01:17;62.30;;;24.70;;
22778;SDS011;11556;51.194;3.800;2023-11-21T03:03:42;62.05;;;25.05;;
22778;SDS011;11556;51.194;3.800;2023-11-21T03:06:08;61.78;;;24.33;;
22778;SDS011;11556;51.194;3.800;2023-11-21T03:08:34;61.25;;;23.58;;
22778;SDS011;11556;51.194;3.800;2023-11-21T03:11:00;72.80;;;23.90;;
22778;SDS011;11556;51.194;3.800;2023-11-21T03:13:28;66.13;;;24.13;;
22778;SDS011;11556;51.194;3.800;2023-11-21T03:15:53;62.13;;;23.48;;
22778;SDS011;11556;51.194;3.800;2023-11-21T03:18:19;63.33;;;22.30;;
22778;SDS011;11556;51.194;3.800;2023-11-21T03:20:47;66.13;;;23.52;;
22778;SDS011;11556;51.194;3.800;2023-11-21T03:23:14;62.08;;;23.52;;
22778;SDS011;11556;51.194;3.800;2023-11-21T03:25:40;69.57;;;22.10;;
22778;SDS011;11556;51.194;3.800;2023-11-21T03:28:05;59.00;;;22.42;;
22778;SDS011;11556;51.194;3.800;2023-11-21T03:30:33;59.30;;;21.63;;
22778;SDS011;11556;51.194;3.800;2023-11-21T03:32:59;61.20;;;22.35;;
22778;SDS011;11556;51.194;3.800;2023-11-21T03:35:24;61.50;;;21.73;;
22778;SDS011;11556;51.194;3.800;2023-11-21T03:37:51;61.10;;;21.25;;
22778;SDS011;11556;51.194;3.800;2023-11-21T03:40:17;62.15;;;21.88;;
22778;SDS011;11556;51.194;3.800;2023-11-21T03:42:42;65.18;;;22.73;;
22778;SDS011;11556;51.194;3.800;2023-11-21T03:45:08;50.33;;;20.05;;
22778;SDS011;11556;51.194;3.800;2023-11-21T03:47:34;62.03;;;22.20;;
22778;SDS011;11556;51.194;3.800;2023-11-21T03:50:00;56.75;;;21.25;;
22778;SDS011;11556;51.194;3.800;2023-11-21T03:52:26;53.15;;;21.88;;
22778;SDS011;11556;51.194;3.800;2023-11-21T03:54:53;62.38;;;22.52;;
22778;SDS011;11556;51.194;3.800;2023-11-21T03:57:20;63.95;;;22.58;;
22778;SDS011;11556;51.194;3.800;2023-11-21T03:59:46;55.58;;;21.38;;
22778;SDS011;11556;51.194;3.800;2023-11-21T04:02:11;53.22;;;19.85;;
22778;SDS011;11556;51.194;3.800;2023-11-21T04:04:37;63.00;;;22.58;;
22778;SDS011;11556;51.194;3.800;2023-11-21T04:07:03;67.13;;;22.65;;
22778;SDS011;11556;51.194;3.800;2023-11-21T04:09:29;65.50;;;22.70;;
22778;SDS011;11556;51.194;3.800;2023-11-21T04:11:55;61.13;;;22.88;;
22778;SDS011;11556;51.194;3.800;2023-11-21T04:14:20;61.38;;;23.25;;
22778;SDS011;11556;51.194;3.800;2023-11-21T04:16:47;63.70;;;23.02;;
22778;SDS011;11556;51.194;3.800;2023-11-21T04:19:13;61.50;;;22.65;;
22778;SDS011;11556;51.194;3.800;2023-11-21T04:21:42;54.00;;;22.42;;
22778;SDS011;11556;51.194;3.800;2023-11-21T04:24:08;58.90;;;22.70;;
22778;SDS011;11556;51.194;3.800;2023-11-21T04:26:34;60.72;;;22.85;;
22778;SDS011;11556;51.194;3.800;2023-11-21T04:29:00;58.15;;;21.95;;
22778;SDS011;11556;51.194;3.800;2023-11-21T04:31:25;58.78;;;21.98;;
22778;SDS011;11556;51.194;3.800;2023-11-21T04:33:51;51.53;;;20.88;;
22778;SDS011;11556;51.194;3.800;2023-11-21T04:36:17;58.17;;;21.13;;
22778;SDS011;11556;51.194;3.800;2023-11-21T04:38:42;62.00;;;21.55;;
22778;SDS011;11556;51.194;3.800;2023-11-21T04:41:09;51.45;;;21.17;;
22778;SDS011;11556;51.194;3.800;2023-11-21T04:43:34;59.47;;;22.20;;
22778;SDS011;11556;51.194;3.800;2023-11-21T04:46:00;66.10;;;22.58;;
22778;SDS011;11556;51.194;3.800;2023-11-21T04:48:27;63.85;;;23.00;;
22778;SDS011;11556;51.194;3.800;2023-11-21T04:50:52;54.45;;;22.20;;
22778;SDS011;11556;51.194;3.800;2023-11-21T04:53:18;51.97;;;21.60;;
22778;SDS011;11556;51.194;3.800;2023-11-21T04:55:44;60.55;;;23.10;;
22778;SDS011;11556;51.194;3.800;2023-11-21T04:58:10;63.83;;;22.80;;
22778;SDS011;11556;51.194;3.800;2023-11-21T05:00:37;58.38;;;23.02;;
22778;SDS011;11556;51.194;3.800;2023-11-21T05:03:03;62.42;;;22.52;;
22778;SDS011;11556;51.194;3.800;2023-11-21T05:05:29;60.20;;;22.65;;
22778;SDS011;11556;51.194;3.800;2023-11-21T05:07:55;66.90;;;23.17;;
22778;SDS011;11556;51.194;3.800;2023-11-21T05:10:21;59.42;;;24.42;;
22778;SDS011;11556;51.194;3.800;2023-11-21T05:12:49;59.72;;;23.40;;
22778;SDS011;11556;51.194;3.800;2023-11-21T05:15:16;62.03;;;24.23;;
22778;SDS011;11556;51.194;3.800;2023-11-21T05:17:42;60.70;;;24.45;;
22778;SDS011;11556;51.194;3.800;2023-11-21T05:20:12;56.55;;;23.65;;
22778;SDS011;11556;51.194;3.800;2023-11-21T05:22:42;56.72;;;23.52;;
22778;SDS011;11556;51.194;3.800;2023-11-21T05:25:08;62.17;;;24.90;;
22778;SDS011;11556;51.194;3.800;2023-11-21T05:27:34;65.60;;;25.17;;
22778;SDS011;11556;51.194;3.800;2023-11-21T05:30:01;64.20;;;24.33;;
22778;SDS011;11556;51.194;3.800;2023-11-21T05:32:30;54.80;;;22.73;;
22778;SDS011;11556;51.194;3.800;2023-11-21T05:34:56;58.00;;;23.38;;
22778;SDS011;11556;51.194;3.800;2023-11-21T05:37:21;57.00;;;23.92;;
22778;SDS011;11556;51.194;3.800;2023-11-21T05:39:48;68.95;;;24.73;;
22778;SDS011;11556;51.194;3.800;2023-11-21T05:42:14;60.03;;;24.52;;
22778;SDS011;11556;51.194;3.800;2023-11-21T05:44:41;66.22;;;24.67;;
22778;SDS011;11556;51.194;3.800;2023-11-21T05:47:08;67.70;;;23.75;;
22778;SDS011;11556;51.194;3.800;2023-11-21T05:49:34;65.75;;;24.67;;
22778;SDS011;11556;51.194;3.800;2023-11-21T05:52:00;64.22;;;24.05;;
22778;SDS011;11556;51.194;3.800;2023-11-21T05:54:26;81.25;;;26.42;;
22778;SDS011;11556;51.194;3.800;2023-11-21T05:56:51;72.78;;;25.30;;
22778;SDS011;11556;51.194;3.800;2023-11-21T05:59:17;70.80;;;25.40;;
22778;SDS011;11556;51.194;3.800;2023-11-21T06:01:43;79.68;;;25.60;;
22778;SDS011;11556;51.194;3.800;2023-11-21T06:04:10;77.10;;;25.42;;
22778;SDS011;11556;51.194;3.800;2023-11-21T06:06:37;72.57;;;25.23;;
22778;SDS011;11556;51.194;3.800;2023-11-21T06:09:03;79.97;;;26.83;;
22778;SDS011;11556;51.194;3.800;2023-11-21T06:11:30;85.63;;;26.58;;
22778;SDS011;11556;51.194;3.800;2023-11-21T06:13:57;85.53;;;27.08;;
22778;SDS011;11556;51.194;3.800;2023-11-21T06:16:23;93.35;;;27.20;;
22778;SDS011;11556;51.194;3.800;2023-11-21T06:18:49;107.05;;;26.35;;
22778;SDS011;11556;51.194;3.800;2023-11-21T06:21:14;168.43;;;29.17;;
22778;SDS011;11556;51.194;3.800;2023-11-21T06:23:41;154.95;;;27.77;;
22778;SDS011;11556;51.194;3.800;2023-11-21T06:26:07;192.85;;;27.95;;
22778;SDS011;11556;51.194;3.800;2023-11-21T06:28:34;160.75;;;28.30;;
22778;SDS011;11556;51.194;3.800;2023-11-21T06:31:01;213.55;;;28.42;;
22778;SDS011;11556;51.194;3.800;2023-11-21T06:33:30;267.92;;;28.45;;
22778;SDS011;11556;51.194;3.800;2023-11-21T06:35:56;195.68;;;29.67;;
22778;SDS011;11556;51.194;3.800;2023-11-21T06:38:22;166.57;;;29.13;;
22778;SDS011;11556;51.194;3.800;2023-11-21T06:40:47;161.30;;;26.95;;
22778;SDS011;11556;51.194;3.800;2023-11-21T06:43:13;380.10;;;34.85;;
22778;SDS011;11556;51.194;3.800;2023-11-21T06:45:39;225.57;;;27.65;;
22778;SDS011;11556;51.194;3.800;2023-11-21T06:48:05;260.65;;;29.08;;
22778;SDS011;11556;51.194;3.800;2023-11-21T06:50:30;217.80;;;26.70;;
22778;SDS011;11556;51.194;3.800;2023-11-21T06:52:56;227.65;;;26.38;;
22778;SDS011;11556;51.194;3.800;2023-11-21T06:55:22;255.93;;;28.95;;
22778;SDS011;11556;51.194;3.800;2023-11-21T06:57:47;132.35;;;23.85;;
22778;SDS011;11556;51.194;3.800;2023-11-21T07:00:13;182.40;;;26.02;;
22778;SDS011;11556;51.194;3.800;2023-11-21T07:02:41;158.35;;;25.33;;
22778;SDS011;11556;51.194;3.800;2023-11-21T07:05:06;170.68;;;24.17;;
22778;SDS011;11556;51.194;3.800;2023-11-21T07:07:32;137.25;;;24.42;;
22778;SDS011;11556;51.194;3.800;2023-11-21T07:10:00;131.30;;;23.92;;
22778;SDS011;11556;51.194;3.800;2023-11-21T07:12:28;95.45;;;22.08;;
22778;SDS011;11556;51.194;3.800;2023-11-21T07:14:57;105.72;;;22.48;;
22778;SDS011;11556;51.194;3.800;2023-11-21T07:17:23;98.90;;;21.70;;
22778;SDS011;11556;51.194;3.800;2023-11-21T07:19:49;102.43;;;21.90;;
22778;SDS011;11556;51.194;3.800;2023-11-21T07:22:15;85.90;;;20.85;;
22778;SDS011;11556;51.194;3.800;2023-11-21T07:24:47;91.80;;;20.25;;
22778;SDS011;11556;51.194;3.800;2023-11-21T07:27:17;119.88;;;29.25;;
22778;SDS011;11556;51.194;3.800;2023-11-21T07:29:42;88.40;;;27.52;;
22778;SDS011;11556;51.194;3.800;2023-11-21T07:32:08;120.18;;;39.10;;
22778;SDS011;11556;51.194;3.800;2023-11-21T07:34:34;105.70;;;33.05;;
22778;SDS011;11556;51.194;3.800;2023-11-21T07:37:01;100.22;;;34.13;;
22778;SDS011;11556;51.194;3.800;2023-11-21T07:39:26;83.70;;;25.60;;
22778;SDS011;11556;51.194;3.800;2023-11-21T07:41:52;76.88;;;21.67;;
22778;SDS011;11556;51.194;3.800;2023-11-21T07:44:18;70.32;;;19.67;;
22778;SDS011;11556;51.194;3.800;2023-11-21T07:46:44;83.90;;;18.98;;
22778;SDS011;11556;51.194;3.800;2023-11-21T07:49:10;69.85;;;18.35;;
22778;SDS011;11556;51.194;3.800;2023-11-21T07:51:36;74.72;;;18.70;;
22778;SDS011;11556;51.194;3.800;2023-11-21T07:54:02;77.95;;;18.33;;
22778;SDS011;11556;51.194;3.800;2023-11-21T07:56:28;72.65;;;18.08;;
22778;SDS011;11556;51.194;3.800;2023-11-21T07:58:53;66.22;;;17.40;;
22778;SDS011;11556;51.194;3.800;2023-11-21T08:01:19;64.88;;;15.88;;
22778;SDS011;11556;51.194;3.800;2023-11-21T08:03:44;65.88;;;17.65;;
22778;SDS011;11556;51.194;3.800;2023-11-21T08:06:10;61.40;;;17.30;;
22778;SDS011;11556;51.194;3.800;2023-11-21T08:08:37;89.13;;;17.95;;
22778;SDS011;11556;51.194;3.800;2023-11-21T08:11:02;70.43;;;17.38;;
22778;SDS011;11556;51.194;3.800;2023-11-21T08:13:29;63.17;;;17.00;;
22778;SDS011;11556;51.194;3.800;2023-11-21T08:15:58;74.97;;;18.13;;
22778;SDS011;11556;51.194;3.800;2023-11-21T08:18:27;72.22;;;17.83;;
22778;SDS011;11556;51.194;3.800;2023-11-21T08:20:54;74.40;;;19.75;;
22778;SDS011;11556;51.194;3.800;2023-11-21T08:23:20;60.55;;;19.13;;
22778;SDS011;11556;51.194;3.800;2023-11-21T08:25:50;46.88;;;17.50;;
22778;SDS011;11556;51.194;3.800;2023-11-21T08:28:16;46.90;;;16.38;;
22778;SDS011;11556;51.194;3.800;2023-11-21T08:30:42;38.97;;;15.27;;
22778;SDS011;11556;51.194;3.800;2023-11-21T08:33:07;35.35;;;13.85;;
22778;SDS011;11556;51.194;3.800;2023-11-21T08:35:33;36.50;;;14.18;;
22778;SDS011;11556;51.194;3.800;2023-11-21T08:37:59;23.50;;;12.05;;
22778;SDS011;11556;51.194;3.800;2023-11-21T08:40:25;22.15;;;10.65;;
22778;SDS011;11556;51.194;3.800;2023-11-21T08:42:50;14.32;;;8.88;;
22778;SDS011;11556;51.194;3.800;2023-11-21T08:45:17;20.15;;;8.88;;
22778;SDS011;11556;51.194;3.800;2023-11-21T08:47:43;20.08;;;7.75;;
22778;SDS011;11556;51.194;3.800;2023-11-21T08:50:10;12.75;;;5.88;;
22778;SDS011;11556;51.194;3.800;2023-11-21T08:52:37;12.05;;;6.07;;
22778;SDS011;11556;51.194;3.800;2023-11-21T08:55:04;11.52;;;3.75;;
22778;SDS011;11556;51.194;3.800;2023-11-21T08:57:35;9.13;;;2.95;;
22778;SDS011;11556;51.194;3.800;2023-11-21T09:00:05;7.10;;;2.30;;
22778;SDS011;11556;51.194;3.800;2023-11-21T09:02:36;5.65;;;2.00;;
22778;SDS011;11556;51.194;3.800;2023-11-21T09:05:09;9.27;;;3.22;;
22778;SDS011;11556;51.194;3.800;2023-11-21T09:07:36;10.70;;;3.40;;
22778;SDS011;11556;51.194;3.800;2023-11-21T09:10:03;9.60;;;3.10;;
22778;SDS011;11556;51.194;3.800;2023-11-21T09:12:32;11.15;;;3.03;;
22778;SDS011;11556;51.194;3.800;2023-11-21T09:14:59;8.30;;;3.05;;
22778;SDS011;11556;51.194;3.800;2023-11-21T09:17:29;4.50;;;1.80;;
22778;SDS011;11556;51.194;3.800;2023-11-21T09:19:55;4.68;;;1.48;;
22778;SDS011;11556;51.194;3.800;2023-11-21T09:22:22;5.97;;;1.40;;
22778;SDS011;11556;51.194;3.800;2023-11-21T09:24:49;4.03;;;1.45;;
22778;SDS011;11556;51.194;3.800;2023-11-21T09:27:18;7.20;;;1.65;;
22778;SDS011;11556;51.194;3.800;2023-11-21T09:29:44;4.53;;;1.63;;
22778;SDS011;11556;51.194;3.800;2023-11-21T09:32:12;8.15;;;2.22;;
22778;SDS011;11556;51.194;3.800;2023-11-21T09:34:39;8.10;;;2.30;;
22778;SDS011;11556;51.194;3.800;2023-11-21T09:37:05;8.43;;;2.30;;
22778;SDS011;11556;51.194;3.800;2023-11-21T09:39:31;5.55;;;2.40;;
22778;SDS011;11556;51.194;3.800;2023-11-21T09:42:04;6.28;;;2.30;;
22778;SDS011;11556;51.194;3.800;2023-11-21T09:45:00;6.10;;;2.50;;
22778;SDS011;11556;51.194;3.800;2023-11-21T09:47:30;8.05;;;2.47;;
22778;SDS011;11556;51.194;3.800;2023-11-21T09:50:01;9.73;;;2.30;;
22778;SDS011;11556;51.194;3.800;2023-11-21T09:52:27;7.00;;;2.10;;
22778;SDS011;11556;51.194;3.800;2023-11-21T09:54:54;6.93;;;2.35;;
22778;SDS011;11556;51.194;3.800;2023-11-21T09:57:23;7.38;;;1.95;;
22778;SDS011;11556;51.194;3.800;2023-11-21T09:59:53;5.45;;;2.40;;
22778;SDS011;11556;51.194;3.800;2023-11-21T10:02:24;9.07;;;2.60;;
22778;SDS011;11556;51.194;3.800;2023-11-21T10:04:52;4.47;;;2.08;;
22778;SDS011;11556;51.194;3.800;2023-11-21T10:07:18;8.77;;;2.60;;
22778;SDS011;11556;51.194;3.800;2023-11-21T10:09:45;7.97;;;2.67;;
22778;SDS011;11556;51.194;3.800;2023-11-21T10:12:11;11.70;;;2.92;;
22778;SDS011;11556;51.194;3.800;2023-11-21T10:14:41;12.48;;;3.03;;
22778;SDS011;11556;51.194;3.800;2023-11-21T10:17:09;8.95;;;1.92;;
22778;SDS011;11556;51.194;3.800;2023-11-21T10:19:37;9.68;;;2.42;;
22778;SDS011;11556;51.194;3.800;2023-11-21T10:22:04;4.88;;;1.60;;
22778;SDS011;11556;51.194;3.800;2023-11-21T10:24:32;6.68;;;1.65;;
22778;SDS011;11556;51.194;3.800;2023-11-21T10:26:58;5.30;;;1.40;;
22778;SDS011;11556;51.194;3.800;2023-11-21T10:29:25;4.40;;;2.10;;
22778;SDS011;11556;51.194;3.800;2023-11-21T10:31:54;9.32;;;3.08;;
22778;SDS011;11556;51.194;3.800;2023-11-21T10:34:22;6.57;;;2.13;;
22778;SDS011;11556;51.194;3.800;2023-11-21T10:36:48;7.18;;;2.30;;
22778;SDS011;11556;51.194;3.800;2023-11-21T10:39:14;5.93;;;1.95;;
22778;SDS011;11556;51.194;3.800;2023-11-21T10:41:45;6.10;;;2.28;;
22778;SDS011;11556;51.194;3.800;2023-11-21T10:44:15;14.45;;;3.15;;
22778;SDS011;11556;51.194;3.800;2023-11-21T10:46:52;7.95;;;3.17;;
22778;SDS011;11556;51.194;3.800;2023-11-21T10:49:25;9.32;;;2.90;;
22778;SDS011;11556;51.194;3.800;2023-11-21T10:51:52;5.50;;;2.10;;
22778;SDS011;11556;51.194;3.800;2023-11-21T10:54:19;7.82;;;2.10;;
22778;SDS011;11556;51.194;3.800;2023-11-21T10:56:46;10.15;;;3.10;;
22778;SDS011;11556;51.194;3.800;2023-11-21T10:59:22;7.65;;;2.50;;
22778;SDS011;11556;51.194;3.800;2023-11-21T11:01:50;6.43;;;1.90;;
22778;SDS011;11556;51.194;3.800;2023-11-21T11:04:18;6.82;;;2.00;;
22778;SDS011;11556;51.194;3.800;2023-11-21T11:06:44;9.38;;;2.25;;
22778;SDS011;11556;51.194;3.800;2023-11-21T11:09:22;6.40;;;1.80;;
22778;SDS011;11556;51.194;3.800;2023-11-21T11:11:48;7.13;;;2.00;;
22778;SDS011;11556;51.194;3.800;2023-11-21T11:14:14;8.63;;;2.55;;
22778;SDS011;11556;51.194;3.800;2023-11-21T11:16:40;8.88;;;2.95;;
22778;SDS011;11556;51.194;3.800;2023-11-21T11:19:08;14.05;;;2.70;;
22778;SDS011;11556;51.194;3.800;2023-11-21T11:29:18;11.23;;;2.42;;
22778;SDS011;11556;51.194;3.800;2023-11-21T11:32:07;12.30;;;2.20;;
22778;SDS011;11556;51.194;3.800;2023-11-21T11:35:01;4.60;;;1.75;;
22778;SDS011;11556;51.194;3.800;2023-11-21T11:37:32;9.90;;;2.83;;
22778;SDS011;11556;51.194;3.800;2023-11-21T11:39:58;10.93;;;1.85;;
22778;SDS011;11556;51.194;3.800;2023-11-21T11:42:25;13.23;;;2.22;;
22778;SDS011;11556;51.194;3.800;2023-11-21T11:44:52;11.00;;;1.85;;
22778;SDS011;11556;51.194;3.800;2023-11-21T11:50:11;4.80;;;1.63;;
22778;SDS011;11556;51.194;3.800;2023-11-21T11:52:50;10.40;;;3.67;;
22778;SDS011;11556;51.194;3.800;2023-11-21T11:55:18;10.55;;;3.20;;
22778;SDS011;11556;51.194;3.800;2023-11-21T11:57:52;9.05;;;3.08;;
22778;SDS011;11556;51.194;3.800;2023-11-21T12:02:55;7.53;;;2.10;;
22778;SDS011;11556;51.194;3.800;2023-11-21T12:05:23;9.25;;;2.25;;
22778;SDS011;11556;51.194;3.800;2023-11-21T12:07:57;5.88;;;1.85;;
22778;SDS011;11556;51.194;3.800;2023-11-21T12:10:26;11.63;;;2.90;;
22778;SDS011;11556;51.194;3.800;2023-11-21T12:13:00;7.03;;;2.58;;
22778;SDS011;11556;51.194;3.800;2023-11-21T12:15:33;7.85;;;2.45;;
22778;SDS011;11556;51.194;3.800;2023-11-21T12:18:00;3.08;;;1.73;;
22778;SDS011;11556;51.194;3.800;2023-11-21T12:20:26;9.38;;;3.90;;
22778;SDS011;11556;51.194;3.800;2023-11-21T12:25:33;7.47;;;2.67;;
22778;SDS011;11556;51.194;3.800;2023-11-21T12:28:00;6.05;;;2.70;;
22778;SDS011;11556;51.194;3.800;2023-11-21T12:30:28;8.05;;;2.58;;
22778;SDS011;11556;51.194;3.800;2023-11-21T12:33:00;5.13;;;2.85;;
22778;SDS011;11556;51.194;3.800;2023-11-21T12:35:30;6.30;;;2.90;;
22778;SDS011;11556;51.194;3.800;2023-11-21T12:38:01;4.47;;;2.58;;
22778;SDS011;11556;51.194;3.800;2023-11-21T12:40:28;7.60;;;3.55;;
22778;SDS011;11556;51.194;3.800;2023-11-21T12:42:55;4.53;;;3.15;;
22778;SDS011;11556;51.194;3.800;2023-11-21T12:45:25;4.53;;;3.08;;
22778;SDS011;11556;51.194;3.800;2023-11-21T12:50:22;4.28;;;2.60;;
22778;SDS011;11556;51.194;3.800;2023-11-21T12:52:51;4.68;;;2.25;;
22778;SDS011;11556;51.194;3.800;2023-11-21T12:55:19;5.60;;;2.50;;
22778;SDS011;11556;51.194;3.800;2023-11-21T12:57:49;3.17;;;2.53;;
22778;SDS011;11556;51.194;3.800;2023-11-21T13:00:19;4.13;;;2.53;;
22778;SDS011;11556;51.194;3.800;2023-11-21T13:02:55;5.85;;;1.83;;
22778;SDS011;11556;51.194;3.800;2023-11-21T13:05:26;4.93;;;2.53;;
22778;SDS011;11556;51.194;3.800;2023-11-21T13:07:56;3.63;;;2.03;;
22778;SDS011;11556;51.194;3.800;2023-11-21T13:10:23;2.47;;;2.20;;
22778;SDS011;11556;51.194;3.800;2023-11-21T13:12:56;6.32;;;3.70;;
22778;SDS011;11556;51.194;3.800;2023-11-21T13:15:28;6.20;;;2.85;;
22778;SDS011;11556;51.194;3.800;2023-11-21T13:17:56;4.25;;;1.98;;
22778;SDS011;11556;51.194;3.800;2023-11-21T13:20:22;3.78;;;1.98;;
22778;SDS011;11556;51.194;3.800;2023-11-21T13:22:54;3.75;;;2.40;;
22778;SDS011;11556;51.194;3.800;2023-11-21T13:25:33;6.03;;;4.00;;
22778;SDS011;11556;51.194;3.800;2023-11-21T13:27:59;8.95;;;5.38;;
22778;SDS011;11556;51.194;3.800;2023-11-21T13:30:25;7.72;;;5.50;;
22778;SDS011;11556;51.194;3.800;2023-11-21T13:32:55;7.28;;;4.90;;
22778;SDS011;11556;51.194;3.800;2023-11-21T13:35:27;10.57;;;5.63;;
22778;SDS011;11556;51.194;3.800;2023-11-21T13:38:02;12.65;;;6.30;;
22778;SDS011;11556;51.194;3.800;2023-11-21T13:40:36;6.00;;;4.40;;
22778;SDS011;11556;51.194;3.800;2023-11-21T13:43:14;5.60;;;4.30;;
22778;SDS011;11556;51.194;3.800;2023-11-21T13:45:41;4.35;;;3.90;;
22778;SDS011;11556;51.194;3.800;2023-11-21T13:48:08;7.97;;;5.05;;
22778;SDS011;11556;51.194;3.800;2023-11-21T13:50:45;8.00;;;5.15;;
22778;SDS011;11556;51.194;3.800;2023-11-21T13:53:20;3.78;;;3.45;;
22778;SDS011;11556;51.194;3.800;2023-11-21T13:55:50;4.28;;;3.97;;
22778;SDS011;11556;51.194;3.800;2023-11-21T13:58:19;4.38;;;3.60;;
22778;SDS011;11556;51.194;3.800;2023-11-21T14:00:49;4.40;;;4.00;;
22778;SDS011;11556;51.194;3.800;2023-11-21T14:03:22;4.68;;;4.00;;
22778;SDS011;11556;51.194;3.800;2023-11-21T14:06:03;12.13;;;7.95;;
22778;SDS011;11556;51.194;3.800;2023-11-21T14:08:33;8.65;;;5.78;;
22778;SDS011;11556;51.194;3.800;2023-11-21T14:10:59;7.38;;;5.07;;
22778;SDS011;11556;51.194;3.800;2023-11-21T14:13:25;5.38;;;4.35;;
22778;SDS011;11556;51.194;3.800;2023-11-21T14:15:52;4.82;;;3.42;;
22778;SDS011;11556;51.194;3.800;2023-11-21T14:18:26;3.10;;;2.42;;
22778;SDS011;11556;51.194;3.800;2023-11-21T14:21:04;2.20;;;2.00;;
22778;SDS011;11556;51.194;3.800;2023-11-21T14:23:31;2.45;;;2.25;;
22778;SDS011;11556;51.194;3.800;2023-11-21T14:25:58;2.13;;;1.90;;
22778;SDS011;11556;51.194;3.800;2023-11-21T14:28:26;3.75;;;3.17;;
22778;SDS011;11556;51.194;3.800;2023-11-21T14:30:51;5.25;;;3.15;;
22778;SDS011;11556;51.194;3.800;2023-11-21T14:33:17;6.30;;;3.85;;
22778;SDS011;11556;51.194;3.800;2023-11-21T14:35:43;4.32;;;3.92;;
22778;SDS011;11556;51.194;3.800;2023-11-21T14:38:10;4.75;;;4.35;;
22778;SDS011;11556;51.194;3.800;2023-11-21T14:40:36;6.43;;;4.60;;
22778;SDS011;11556;51.194;3.800;2023-11-21T14:43:01;5.13;;;4.63;;
22778;SDS011;11556;51.194;3.800;2023-11-21T14:45:31;5.80;;;5.20;;
22778;SDS011;11556;51.194;3.800;2023-11-21T14:47:57;5.38;;;4.90;;
22778;SDS011;11556;51.194;3.800;2023-11-21T14:50:52;6.40;;;5.68;;
22778;SDS011;11556;51.194;3.800;2023-11-21T14:53:26;7.57;;;6.30;;